KRWV

Caldwell Municipal Airport

Caldwell, Texas, USA
METAR KRWV 191835Z AUTO 14007KT 120V190 10SM SCT042 32/22 A2996 RMK AO2 T03250223
Observed Flight Rules
Sep-19 @ 18:35 UTC (31 minutes ago) Visual Flight Rules
Wind Visibility Clouds
140° at 7 knots 10 miles
  • Scattered at 4,200' AGL
Temperatures Readings
Current 33°C / 91°F
Dewpoint 22°C / 72°F
Humidity 52%
Altimeter 29.96" Hg
Pressure 1015 hPa
Elevation 119
METAR KRWV 191835Z AUTO 14007KT 120V190 10SM SCT042 32/22 A2996 RMK AO2 T03250223
Observed Flight Rules
Sep-19 @ 18:35 UTC
(31 minutes ago)
VFR
Wind Visibility
140° at 7 knots 10 miles
Clouds
  • Scattered at 4,200' AGL
Temperature Dewpoint
33°C / 91°F 22°C / 72°F
Humidity Altimeter Pressure
52% 29.96" Hg 1015 hPa